Time;durP1;ratioP1;P1;durP2;ratioP2;P2;SDS_P1;SDS_P2;PMS_P1;PMS_P2;Temp;Humidity;BMP_temperature;BMP_pressure;BME280_temperature;BME280_humidity;BME280_pressure;Samples;Min_cycle;Max_cycle;Signal;HPM_P1;HPM_P2
2021/08/29 00:01:15;;;;;;;12.60;10.63;;;15.10;99.90;;;;;;5020387;28;20213;-72
2021/08/29 00:03:41;;;;;;;12.40;11.10;;;15.10;99.90;;;;;;5031240;28;20195;-72
2021/08/29 00:06:08;;;;;;;14.00;11.70;;;15.10;99.90;;;;;;5032995;28;20568;-72
2021/08/29 00:08:35;;;;;;;13.03;10.93;;;15.10;99.90;;;;;;5026099;28;20611;-74
2021/08/29 00:11:03;;;;;;;12.30;10.40;;;15.10;99.90;;;;;;5027631;28;20227;-72
2021/08/29 00:13:30;;;;;;;13.40;11.60;;;15.00;99.90;;;;;;5029971;28;20195;-72
2021/08/29 00:15:57;;;;;;;12.83;10.87;;;15.00;99.90;;;;;;5028246;28;20214;-73
2021/08/29 00:18:24;;;;;;;14.27;12.00;;;15.00;99.90;;;;;;5022214;28;20679;-73
2021/08/29 00:20:50;;;;;;;13.57;11.33;;;15.00;99.90;;;;;;5012995;28;20199;-73
2021/08/29 00:23:17;;;;;;;12.50;10.80;;;14.90;99.90;;;;;;5031489;28;20210;-72
2021/08/29 00:25:44;;;;;;;12.40;10.87;;;14.90;99.90;;;;;;5025045;28;20202;-73
2021/08/29 00:28:12;;;;;;;13.10;10.80;;;14.90;99.90;;;;;;5025403;28;20206;-72
2021/08/29 00:30:39;;;;;;;13.33;10.83;;;14.90;99.90;;;;;;5021550;28;20215;-74
2021/08/29 00:33:06;;;;;;;13.07;11.40;;;14.90;99.90;;;;;;5026870;28;20211;-74
2021/08/29 00:35:33;;;;;;;11.77;10.57;;;14.90;99.90;;;;;;5025561;28;20210;-72
2021/08/29 00:38:00;;;;;;;12.53;10.70;;;14.90;99.90;;;;;;5019689;28;20211;-72
2021/08/29 00:40:27;;;;;;;13.13;11.70;;;14.90;99.90;;;;;;5016122;28;20249;-72
2021/08/29 00:42:54;;;;;;;12.27;10.80;;;14.90;99.90;;;;;;5033339;28;20206;-72
2021/08/29 00:45:23;;;;;;;12.53;10.80;;;14.80;99.90;;;;;;5035557;28;20206;-73
2021/08/29 00:47:50;;;;;;;14.77;10.90;;;14.80;99.90;;;;;;5020108;28;20218;-72
2021/08/29 00:50:17;;;;;;;12.17;10.87;;;14.80;99.90;;;;;;5021030;28;20210;-72
2021/08/29 00:52:45;;;;;;;12.67;10.90;;;14.80;99.90;;;;;;5026309;28;20313;-72
2021/08/29 00:55:12;;;;;;;17.10;11.27;;;14.80;99.90;;;;;;5025411;28;20213;-73
2021/08/29 00:57:39;;;;;;;13.90;11.17;;;14.70;99.90;;;;;;5029196;28;20202;-72
2021/08/29 01:00:08;;;;;;;14.93;11.33;;;14.70;99.90;;;;;;5022858;28;20218;-72
2021/08/29 01:02:36;;;;;;;12.20;10.90;;;14.70;99.90;;;;;;5023240;28;20234;-72
2021/08/29 01:05:06;;;;;;;11.70;10.17;;;14.70;99.90;;;;;;5031613;28;20214;-72
2021/08/29 01:07:37;;;;;;;12.13;10.87;;;14.70;99.90;;;;;;5014208;28;20261;-72
2021/08/29 01:10:08;;;;;;;12.30;10.87;;;14.70;99.90;;;;;;5028461;28;20671;-72
2021/08/29 01:12:35;;;;;;;13.43;11.33;;;14.60;99.90;;;;;;5025693;28;20230;-72
2021/08/29 01:15:04;;;;;;;13.83;10.53;;;14.70;99.90;;;;;;5026968;28;20210;-72
2021/08/29 01:17:34;;;;;;;13.47;11.27;;;14.60;99.90;;;;;;5019673;28;20643;-72
2021/08/29 01:20:14;;;;;;;15.83;10.70;;;14.60;99.90;;;;;;5016325;28;20211;-72
2021/08/29 01:22:41;;;;;;;12.20;10.93;;;14.60;99.90;;;;;;5021552;28;20225;-72
2021/08/29 01:25:12;;;;;;;11.73;10.53;;;14.60;99.90;;;;;;5018310;28;20203;-72
2021/08/29 01:27:46;;;;;;;11.30;9.93;;;14.60;99.90;;;;;;5028630;28;20210;-72
2021/08/29 01:30:15;;;;;;;13.57;10.67;;;14.60;99.90;;;;;;5025883;28;20217;-73
2021/08/29 01:32:43;;;;;;;12.50;10.17;;;14.60;99.90;;;;;;5025448;28;20565;-72
2021/08/29 01:35:12;;;;;;;15.17;11.00;;;14.60;99.90;;;;;;5024755;28;20206;-72
2021/08/29 01:37:40;;;;;;;11.27;10.03;;;14.60;99.90;;;;;;5026004;28;20242;-72
2021/08/29 01:40:09;;;;;;;12.53;10.63;;;14.60;99.90;;;;;;5031400;28;20234;-72
2021/08/29 01:42:36;;;;;;;12.10;10.10;;;14.60;99.90;;;;;;5022718;28;20213;-72
2021/08/29 01:45:03;;;;;;;11.50;9.90;;;14.50;99.90;;;;;;5028182;28;20206;-72
2021/08/29 01:47:31;;;;;;;11.67;9.80;;;14.60;99.90;;;;;;5026156;28;20203;-73
2021/08/29 01:49:59;;;;;;;11.23;9.87;;;14.50;99.90;;;;;;5030036;28;20218;-72
2021/08/29 01:52:25;;;;;;;12.23;10.30;;;14.50;99.90;;;;;;5029192;28;20231;-72
2021/08/29 01:54:52;;;;;;;14.57;10.57;;;14.50;99.90;;;;;;5012097;28;20207;-72
2021/08/29 01:57:19;;;;;;;11.37;10.10;;;14.50;99.90;;;;;;5018978;28;20210;-72
2021/08/29 01:59:46;;;;;;;13.00;10.83;;;14.50;99.90;;;;;;5026636;28;20203;-73
2021/08/29 02:02:14;;;;;;;10.70;9.60;;;14.40;99.90;;;;;;5030223;28;20207;-72
2021/08/29 02:04:44;;;;;;;11.43;9.73;;;14.40;99.90;;;;;;5032112;28;20206;-73
2021/08/29 02:07:24;;;;;;;12.50;10.10;;;14.50;99.90;;;;;;5032527;28;20674;-72
2021/08/29 02:09:55;;;;;;;10.73;9.63;;;14.40;99.90;;;;;;5034969;28;20666;-72
2021/08/29 02:12:23;;;;;;;11.47;9.70;;;14.40;99.90;;;;;;5032191;28;20234;-72
2021/08/29 02:15:03;;;;;;;10.47;9.37;;;14.40;99.90;;;;;;5029294;28;20629;-72
2021/08/29 02:17:31;;;;;;;9.90;8.77;;;14.40;99.90;;;;;;5034008;28;20210;-72
2021/08/29 02:20:04;;;;;;;12.83;9.70;;;14.40;99.90;;;;;;5035023;28;20206;-73
2021/08/29 02:22:33;;;;;;;12.23;10.00;;;14.40;99.90;;;;;;5034293;28;20253;-73
2021/08/29 02:25:01;;;;;;;10.47;9.37;;;14.40;99.90;;;;;;5034985;28;20225;-72
2021/08/29 02:27:27;;;;;;;10.90;8.50;;;14.40;99.90;;;;;;5021962;28;20203;-74
2021/08/29 02:29:54;;;;;;;11.87;9.83;;;14.40;99.90;;;;;;5034444;28;20202;-74
2021/08/29 02:32:22;;;;;;;11.00;9.83;;;14.30;99.90;;;;;;5034888;28;20227;-74
2021/08/29 02:34:49;;;;;;;10.70;9.60;;;14.40;99.90;;;;;;5034477;28;20241;-73
2021/08/29 02:37:18;;;;;;;9.57;8.67;;;14.30;99.90;;;;;;5026457;28;20702;-73
2021/08/29 02:39:45;;;;;;;10.90;9.60;;;14.30;99.90;;;;;;5028184;28;20571;-74
2021/08/29 02:42:12;;;;;;;11.23;9.63;;;14.30;99.90;;;;;;5026051;28;20207;-74
2021/08/29 02:44:41;;;;;;;13.00;9.87;;;14.30;99.90;;;;;;5034693;28;20198;-73
2021/08/29 02:47:08;;;;;;;13.03;9.97;;;14.30;99.90;;;;;;5032892;28;20198;-73
2021/08/29 02:49:35;;;;;;;11.27;9.80;;;14.30;99.90;;;;;;5029578;28;20655;-74
2021/08/29 02:52:03;;;;;;;10.90;9.73;;;14.30;99.90;;;;;;5032650;28;20230;-72
2021/08/29 02:54:33;;;;;;;11.37;9.10;;;14.30;99.90;;;;;;5029505;28;20199;-72
2021/08/29 02:57:01;;;;;;;11.63;9.53;;;14.30;99.90;;;;;;5033538;28;20211;-73
2021/08/29 02:59:29;;;;;;;13.23;9.67;;;14.30;99.90;;;;;;5031827;28;20210;-72
2021/08/29 03:01:56;;;;;;;11.43;9.80;;;14.30;99.90;;;;;;5033440;28;20213;-73
2021/08/29 03:04:23;;;;;;;10.83;9.47;;;14.20;99.90;;;;;;5029102;28;20199;-73
2021/08/29 03:06:50;;;;;;;13.33;9.50;;;14.20;99.90;;;;;;5028364;28;20663;-72
2021/08/29 03:09:17;;;;;;;10.80;9.57;;;14.20;99.90;;;;;;5026202;28;20214;-74
2021/08/29 03:11:45;;;;;;;13.67;10.37;;;14.20;99.90;;;;;;5025485;28;20234;-73
2021/08/29 03:14:12;;;;;;;10.93;9.77;;;14.20;99.90;;;;;;5029890;28;20207;-73
2021/08/29 03:16:40;;;;;;;12.40;9.63;;;14.20;99.90;;;;;;5027721;28;20206;-73
2021/08/29 03:19:07;;;;;;;11.03;9.33;;;14.20;99.90;;;;;;5017854;28;20222;-73
2021/08/29 03:21:34;;;;;;;10.53;9.43;;;14.20;99.90;;;;;;5020402;28;20651;-74
2021/08/29 03:24:01;;;;;;;13.37;9.60;;;14.20;99.90;;;;;;5027805;28;20225;-73
2021/08/29 03:26:28;;;;;;;10.03;8.70;;;14.20;99.90;;;;;;5016452;28;20215;-73
2021/08/29 03:28:57;;;;;;;11.40;10.20;;;14.10;99.90;;;;;;5020997;28;20652;-73
2021/08/29 03:31:24;;;;;;;11.53;9.73;;;14.10;99.90;;;;;;5032255;28;20210;-73
2021/08/29 03:33:53;;;;;;;12.07;9.60;;;14.20;99.90;;;;;;5030479;28;20210;-73
2021/08/29 03:36:24;;;;;;;12.60;10.13;;;14.20;99.90;;;;;;5024721;28;20608;-73
2021/08/29 03:38:51;;;;;;;11.60;9.60;;;14.10;99.90;;;;;;5026663;28;20222;-73
2021/08/29 03:41:19;;;;;;;10.63;9.00;;;14.10;99.90;;;;;;5030374;28;20229;-73
2021/08/29 03:43:46;;;;;;;10.37;9.27;;;14.10;99.90;;;;;;5032785;28;20203;-73
2021/08/29 03:46:16;;;;;;;11.47;9.73;;;14.10;99.90;;;;;;5030595;28;20221;-74
2021/08/29 03:48:44;;;;;;;11.50;8.90;;;14.10;99.90;;;;;;5029119;28;20203;-73
2021/08/29 03:51:14;;;;;;;9.60;8.63;;;14.10;99.90;;;;;;5032085;28;20233;-74
2021/08/29 03:53:42;;;;;;;10.27;9.20;;;14.10;99.90;;;;;;5020589;28;20314;-73
2021/08/29 03:56:09;;;;;;;10.73;9.13;;;14.10;99.90;;;;;;5019293;28;20233;-72
2021/08/29 03:58:38;;;;;;;11.13;9.30;;;14.10;99.90;;;;;;5029241;28;20577;-73
2021/08/29 04:01:05;;;;;;;10.60;9.50;;;14.10;99.90;;;;;;5036610;28;21035;-71
2021/08/29 04:03:34;;;;;;;10.70;9.60;;;14.10;99.90;;;;;;5035790;28;20700;-73
2021/08/29 04:06:02;;;;;;;13.03;9.07;;;14.10;99.90;;;;;;5028058;28;20529;-73
2021/08/29 04:08:32;;;;;;;10.83;9.40;;;14.10;99.90;;;;;;5026512;28;20621;-73
2021/08/29 04:11:00;;;;;;;10.57;9.47;;;14.10;99.90;;;;;;5031298;28;20683;-74
2021/08/29 04:13:28;;;;;;;10.57;9.47;;;14.10;99.90;;;;;;5031544;28;20257;-72
2021/08/29 04:15:55;;;;;;;11.43;9.60;;;14.10;99.90;;;;;;5030865;28;20307;-73
2021/08/29 04:18:24;;;;;;;11.50;9.87;;;14.20;99.90;;;;;;5026340;28;20211;-73
2021/08/29 04:20:52;;;;;;;12.07;9.87;;;14.10;99.90;;;;;;5029978;28;20199;-74
2021/08/29 04:23:20;;;;;;;10.67;9.00;;;14.20;99.90;;;;;;5032238;28;20206;-74
2021/08/29 04:25:47;;;;;;;12.37;9.53;;;14.20;99.90;;;;;;5031182;28;20217;-73
2021/08/29 04:28:14;;;;;;;11.87;9.33;;;14.20;99.90;;;;;;5026762;28;20213;-73
2021/08/29 04:30:42;;;;;;;12.53;9.70;;;14.20;99.90;;;;;;5032124;28;20210;-74
2021/08/29 04:33:08;;;;;;;10.60;9.23;;;14.20;99.90;;;;;;5027973;28;20574;-73
2021/08/29 04:35:35;;;;;;;12.33;9.70;;;14.20;99.90;;;;;;5025263;28;20203;-73
2021/08/29 04:38:04;;;;;;;10.30;9.30;;;14.30;99.90;;;;;;5029756;28;20237;-74
2021/08/29 04:40:33;;;;;;;13.27;9.80;;;14.30;99.90;;;;;;5030860;28;20238;-73
2021/08/29 04:43:00;;;;;;;10.97;9.87;;;14.30;99.90;;;;;;5030679;28;20237;-73
2021/08/29 04:45:27;;;;;;;10.80;9.70;;;14.30;99.90;;;;;;5032409;28;20234;-74
2021/08/29 04:47:53;;;;;;;11.17;10.00;;;14.40;99.90;;;;;;5027993;28;20530;-73
2021/08/29 04:50:20;;;;;;;10.67;9.47;;;14.40;99.90;;;;;;5032276;28;20206;-72
2021/08/29 04:52:47;;;;;;;10.10;9.10;;;14.40;99.90;;;;;;5028942;28;20234;-73
2021/08/29 04:55:15;;;;;;;10.90;9.80;;;14.50;99.90;;;;;;5030585;28;20207;-73
2021/08/29 04:57:42;;;;;;;11.97;9.90;;;14.60;99.90;;;;;;5026926;28;20233;-73
2021/08/29 05:00:11;;;;;;;11.70;9.90;;;14.60;99.90;;;;;;5026235;28;20659;-73
2021/08/29 05:02:38;;;;;;;12.60;10.17;;;14.60;99.90;;;;;;5031662;28;20222;-73
2021/08/29 05:05:06;;;;;;;11.57;9.90;;;14.70;99.90;;;;;;5030858;28;20214;-73
2021/08/29 05:07:33;;;;;;;10.60;9.47;;;14.70;99.90;;;;;;5020174;28;20675;-73
2021/08/29 05:10:00;;;;;;;11.60;9.60;;;14.70;99.90;;;;;;5022084;28;20215;-73
2021/08/29 05:12:28;;;;;;;10.97;9.20;;;14.70;99.90;;;;;;5029219;28;20230;-73
2021/08/29 05:14:55;;;;;;;12.17;9.37;;;14.80;99.90;;;;;;5018394;28;20206;-72
2021/08/29 05:17:22;;;;;;;10.87;9.60;;;14.80;99.90;;;;;;5031541;28;20583;-72
2021/08/29 05:19:48;;;;;;;11.33;9.77;;;14.80;99.90;;;;;;5024555;28;20219;-72
2021/08/29 05:22:15;;;;;;;10.50;9.43;;;14.90;99.90;;;;;;5030334;28;20562;-72
2021/08/29 05:24:42;;;;;;;11.10;8.70;;;14.90;99.90;;;;;;5031572;28;20202;-71
2021/08/29 05:27:09;;;;;;;16.37;10.50;;;15.00;99.90;;;;;;5027800;28;20207;-72
2021/08/29 05:29:37;;;;;;;10.43;9.40;;;15.00;99.90;;;;;;5027439;28;20199;-70
2021/08/29 05:32:04;;;;;;;11.23;9.37;;;15.00;99.90;;;;;;5028349;28;20206;-70
2021/08/29 05:34:31;;;;;;;11.70;9.73;;;15.10;99.90;;;;;;5025676;28;20310;-71
2021/08/29 05:36:58;;;;;;;10.77;9.67;;;15.10;99.90;;;;;;5026492;28;20222;-72
2021/08/29 05:39:25;;;;;;;13.30;10.67;;;15.10;99.90;;;;;;5029927;28;20202;-71
2021/08/29 05:41:51;;;;;;;11.67;10.47;;;15.20;99.90;;;;;;5034327;28;20202;-72
2021/08/29 05:44:18;;;;;;;11.93;10.13;;;15.20;99.90;;;;;;5025101;28;21071;-71
2021/08/29 05:46:46;;;;;;;10.53;9.13;;;15.20;99.90;;;;;;5032880;28;20202;-70
2021/08/29 05:49:13;;;;;;;10.57;9.47;;;15.30;99.90;;;;;;5027113;28;20214;-70
2021/08/29 05:51:40;;;;;;;11.60;10.40;;;15.30;99.90;;;;;;5030587;28;20206;-70
2021/08/29 05:54:07;;;;;;;11.53;10.33;;;15.30;99.90;;;;;;5032049;28;20230;-70
2021/08/29 05:56:33;;;;;;;10.43;9.33;;;15.40;99.90;;;;;;5032426;28;20218;-70
2021/08/29 05:59:00;;;;;;;11.27;10.17;;;15.40;99.90;;;;;;5029933;28;20222;-70
2021/08/29 06:01:27;;;;;;;12.13;10.63;;;15.60;99.90;;;;;;5034380;28;20218;-70
2021/08/29 06:03:55;;;;;;;14.03;9.83;;;15.60;99.90;;;;;;5026525;28;20203;-71
2021/08/29 06:06:22;;;;;;;14.03;10.83;;;15.60;99.90;;;;;;5019808;28;20215;-71
2021/08/29 06:08:48;;;;;;;13.30;10.63;;;15.70;99.90;;;;;;5021379;28;20214;-70
2021/08/29 06:11:15;;;;;;;11.57;10.00;;;15.70;99.90;;;;;;5021262;28;20203;-73
2021/08/29 06:13:42;;;;;;;11.07;9.87;;;15.70;99.90;;;;;;5029839;28;20222;-72
2021/08/29 06:16:09;;;;;;;11.23;9.77;;;15.80;99.90;;;;;;5026207;28;20238;-71
2021/08/29 06:18:35;;;;;;;11.43;10.10;;;15.80;99.90;;;;;;5027607;28;20215;-71
2021/08/29 06:21:04;;;;;;;12.57;10.27;;;15.90;99.90;;;;;;5017728;28;20234;-72
2021/08/29 06:23:31;;;;;;;11.53;10.33;;;16.00;99.90;;;;;;5031738;28;20534;-73
2021/08/29 06:25:57;;;;;;;12.57;10.10;;;16.10;99.90;;;;;;5027209;28;20211;-72
2021/08/29 06:28:24;;;;;;;11.50;10.30;;;16.20;99.90;;;;;;5033331;28;20210;-72
2021/08/29 06:30:51;;;;;;;12.07;10.00;;;16.20;99.90;;;;;;5030816;28;20203;-72
2021/08/29 06:33:18;;;;;;;13.33;10.70;;;16.30;99.90;;;;;;5033630;28;20214;-72
2021/08/29 06:35:44;;;;;;;11.30;10.10;;;16.40;99.90;;;;;;5031181;28;20333;-72
2021/08/29 06:38:13;;;;;;;11.10;10.00;;;16.50;99.90;;;;;;5028063;28;20216;-73
2021/08/29 06:40:39;;;;;;;12.50;9.53;;;16.60;99.90;;;;;;5021676;28;20615;-73
2021/08/29 06:43:06;;;;;;;11.17;10.07;;;16.60;99.90;;;;;;5024403;28;20237;-71
2021/08/29 06:45:33;;;;;;;10.63;9.63;;;16.80;99.90;;;;;;5020199;28;20214;-72
2021/08/29 06:48:00;;;;;;;11.50;10.23;;;16.90;99.90;;;;;;5019394;28;20210;-73
2021/08/29 06:50:26;;;;;;;10.63;9.63;;;17.00;99.90;;;;;;5018659;28;20227;-75
2021/08/29 06:52:53;;;;;;;12.20;9.83;;;17.10;99.90;;;;;;5021265;28;20230;-72
2021/08/29 06:55:21;;;;;;;14.43;10.43;;;17.20;99.90;;;;;;5018690;28;20207;-75
2021/08/29 06:57:48;;;;;;;12.60;11.20;;;17.30;99.90;;;;;;5022928;28;20566;-73
2021/08/29 07:00:15;;;;;;;12.03;10.73;;;17.40;99.90;;;;;;5022665;28;20218;-73
2021/08/29 07:02:42;;;;;;;11.83;10.63;;;17.50;99.90;;;;;;5019845;28;20216;-73
2021/08/29 07:05:10;;;;;;;14.03;10.90;;;17.60;99.90;;;;;;5024828;28;20210;-73
2021/08/29 07:07:36;;;;;;;11.57;10.03;;;17.70;99.90;;;;;;5021544;28;20224;-72
2021/08/29 07:10:04;;;;;;;12.23;10.90;;;17.70;99.90;;;;;;5023938;28;20206;-72
2021/08/29 07:12:32;;;;;;;11.43;10.23;;;17.80;99.90;;;;;;5018912;28;20643;-72
2021/08/29 07:14:59;;;;;;;11.70;10.20;;;18.00;99.90;;;;;;5023297;28;20648;-73
2021/08/29 07:17:26;;;;;;;12.10;10.27;;;18.10;99.90;;;;;;5024071;28;20221;-73
2021/08/29 07:19:52;;;;;;;11.47;10.27;;;18.20;99.90;;;;;;5021152;28;20214;-71
2021/08/29 07:22:19;;;;;;;10.88;9.75;;;18.30;99.90;;;;;;5020013;28;20546;-73
2021/08/29 07:24:46;;;;;;;11.87;10.03;;;18.50;99.90;;;;;;5029618;28;20554;-72
2021/08/29 07:27:12;;;;;;;11.80;10.60;;;18.50;99.90;;;;;;5022200;28;20211;-72
2021/08/29 07:29:41;;;;;;;11.20;9.67;;;18.60;99.90;;;;;;5017798;28;20203;-72
2021/08/29 07:32:08;;;;;;;11.52;9.75;;;18.60;99.90;;;;;;5020694;28;20206;-72
2021/08/29 07:34:35;;;;;;;12.23;10.85;;;18.70;99.90;;;;;;5020946;28;20233;-74
2021/08/29 07:37:02;;;;;;;12.18;9.65;;;18.80;99.90;;;;;;5025972;28;20237;-73
2021/08/29 07:39:29;;;;;;;10.98;9.88;;;18.90;99.90;;;;;;5019422;28;20207;-72
2021/08/29 07:41:55;;;;;;;10.48;9.48;;;19.00;99.90;;;;;;5018192;28;20564;-71
2021/08/29 07:44:22;;;;;;;11.13;9.50;;;19.00;99.90;;;;;;5023282;28;20218;-74
2021/08/29 07:46:50;;;;;;;11.43;9.85;;;19.10;99.90;;;;;;5021267;28;20214;-72
2021/08/29 07:49:17;;;;;;;10.85;9.60;;;19.10;99.90;;;;;;5021311;28;20210;-71
2021/08/29 07:51:44;;;;;;;10.80;8.75;;;19.10;99.90;;;;;;5023107;28;20412;-72
2021/08/29 07:54:11;;;;;;;10.98;9.50;;;19.10;99.90;;;;;;5023269;28;20227;-70
2021/08/29 07:56:37;;;;;;;10.80;9.70;;;19.20;99.90;;;;;;5017198;28;20962;-68
2021/08/29 07:59:04;;;;;;;9.30;8.35;;;19.20;99.90;;;;;;5024573;28;20629;-70
2021/08/29 08:01:31;;;;;;;10.10;8.48;;;19.30;99.90;;;;;;5022724;28;21223;-69
2021/08/29 08:03:59;;;;;;;11.13;8.98;;;19.30;99.90;;;;;;5033116;28;20198;-71
2021/08/29 08:06:26;;;;;;;10.77;9.67;;;19.30;99.90;;;;;;5027556;28;20211;-72
2021/08/29 08:08:54;;;;;;;9.43;8.52;;;19.50;99.90;;;;;;5027870;28;20593;-73
2021/08/29 08:11:21;;;;;;;9.82;8.90;;;19.60;99.90;;;;;;5028129;28;20206;-71
2021/08/29 08:13:47;;;;;;;10.93;9.20;;;19.80;99.90;;;;;;5029012;28;20722;-72
2021/08/29 08:16:14;;;;;;;9.65;8.68;;;19.90;99.90;;;;;;5030312;28;20221;-71
2021/08/29 08:18:41;;;;;;;9.77;8.75;;;20.00;99.90;;;;;;5031569;28;20222;-70
2021/08/29 08:21:09;;;;;;;9.57;8.68;;;20.00;99.90;;;;;;5029930;28;20190;-73
2021/08/29 08:23:36;;;;;;;11.45;8.85;;;20.10;99.90;;;;;;5027151;28;20206;-71
2021/08/29 08:26:03;;;;;;;9.65;8.65;;;20.20;99.90;;;;;;5028691;28;20663;-69
2021/08/29 08:28:30;;;;;;;9.52;8.55;;;20.20;99.90;;;;;;5028950;28;20221;-70
2021/08/29 08:30:56;;;;;;;10.18;8.45;;;20.20;99.90;;;;;;5020938;28;20643;-71
2021/08/29 08:33:23;;;;;;;9.55;8.55;;;20.20;99.90;;;;;;5029449;28;20242;-71
2021/08/29 08:35:50;;;;;;;9.40;8.35;;;20.20;99.90;;;;;;5027437;28;20226;-74
2021/08/29 08:38:18;;;;;;;12.00;10.77;;;20.10;99.90;;;;;;5026156;28;20647;-71
2021/08/29 08:40:45;;;;;;;8.98;8.18;;;20.10;99.90;;;;;;5025408;28;20253;-71
2021/08/29 08:43:13;;;;;;;10.20;8.10;;;20.10;99.90;;;;;;5032467;28;20210;-72
2021/08/29 08:45:40;;;;;;;9.15;8.25;;;20.10;99.90;;;;;;5044170;28;20201;-73
2021/08/29 08:48:10;;;;;;;8.32;7.57;;;20.10;99.90;;;;;;5030878;28;20214;-73
2021/08/29 08:50:37;;;;;;;9.23;8.20;;;20.10;99.90;;;;;;5049363;28;20252;-73
2021/08/29 08:53:05;;;;;;;8.65;7.80;;;20.10;99.90;;;;;;5040464;28;20213;-72
2021/08/29 08:55:34;;;;;;;8.88;7.97;;;20.20;99.90;;;;;;5035509;28;20210;-77
2021/08/29 08:58:01;;;;;;;8.40;7.53;;;20.20;99.90;;;;;;5032818;28;20210;-74
2021/08/29 09:00:28;;;;;;;8.70;7.43;;;20.20;99.90;;;;;;5028696;28;20203;-73
2021/08/29 09:02:57;;;;;;;9.38;7.75;;;20.20;99.90;;;;;;5030779;28;20529;-73
2021/08/29 09:05:24;;;;;;;9.40;7.60;;;20.20;99.90;;;;;;5031057;28;20207;-72
2021/08/29 09:07:51;;;;;;;7.93;7.13;;;20.30;99.90;;;;;;5022899;28;20209;-74
2021/08/29 09:10:18;;;;;;;9.93;7.53;;;20.30;99.90;;;;;;5024741;28;20209;-74
2021/08/29 09:12:57;;;;;;;7.65;6.93;;;20.40;99.90;;;;;;5029411;28;20224;-73
2021/08/29 09:15:24;;;;;;;7.53;6.82;;;20.40;99.90;;;;;;5021552;28;20663;-73
2021/08/29 09:17:51;;;;;;;9.57;6.20;;;20.50;99.90;;;;;;5031615;28;20206;-74
2021/08/29 09:20:21;;;;;;;12.13;7.20;;;20.50;99.90;;;;;;5030772;28;20210;-73
2021/08/29 09:22:52;;;;;;;8.68;6.50;;;20.50;99.90;;;;;;5030681;28;20663;-71
2021/08/29 09:25:21;;;;;;;8.32;7.47;;;20.50;99.90;;;;;;5023187;28;20210;-73
2021/08/29 09:27:49;;;;;;;9.93;7.57;;;20.60;99.90;;;;;;5029788;28;20221;-73
2021/08/29 09:30:19;;;;;;;9.07;7.70;;;20.60;99.90;;;;;;5030266;28;20233;-72
2021/08/29 09:32:48;;;;;;;7.63;6.55;;;20.60;99.90;;;;;;5018534;28;20206;-74
2021/08/29 09:35:15;;;;;;;6.55;5.95;;;20.50;99.90;;;;;;5030478;28;20226;-72
2021/08/29 09:37:41;;;;;;;8.00;6.57;;;20.50;99.90;;;;;;5028541;28;20226;-72
2021/08/29 09:40:21;;;;;;;7.68;6.75;;;20.50;99.90;;;;;;5030553;28;20715;-72
2021/08/29 09:42:50;;;;;;;8.07;6.65;;;20.60;99.90;;;;;;5030630;28;20213;-72
2021/08/29 09:45:26;;;;;;;8.90;8.00;;;20.60;99.90;;;;;;5019193;28;20203;-72
2021/08/29 09:47:54;;;;;;;8.63;7.72;;;20.60;99.90;;;;;;5030580;28;20194;-73
2021/08/29 09:50:23;;;;;;;10.45;8.70;;;20.50;99.90;;;;;;5029989;28;20202;-74
2021/08/29 09:52:58;;;;;;;9.68;8.70;;;20.50;99.90;;;;;;5028402;28;20203;-73
2021/08/29 09:55:30;;;;;;;11.65;8.65;;;20.50;99.90;;;;;;5014900;28;20211;-72
2021/08/29 09:57:57;;;;;;;9.50;8.60;;;20.50;99.90;;;;;;5028511;28;20209;-73
2021/08/29 10:00:26;;;;;;;9.90;8.93;;;20.50;99.90;;;;;;5025193;28;20215;-73
2021/08/29 10:03:03;;;;;;;10.27;8.90;;;20.40;99.90;;;;;;5021624;28;20222;-73
2021/08/29 10:05:31;;;;;;;9.10;8.30;;;20.30;99.90;;;;;;5018314;28;21114;-73
2021/08/29 10:08:00;;;;;;;8.38;7.57;;;20.30;99.90;;;;;;5011952;28;20207;-73
2021/08/29 10:10:29;;;;;;;9.57;8.68;;;20.20;99.90;;;;;;5023025;28;20555;-73
2021/08/29 10:12:58;;;;;;;10.30;7.88;;;20.10;99.90;;;;;;5022950;28;20230;-72
2021/08/29 10:15:27;;;;;;;9.55;8.52;;;20.10;99.90;;;;;;5028412;28;20230;-73
2021/08/29 10:17:58;;;;;;;9.63;8.55;;;20.00;99.90;;;;;;5024632;28;20541;-73
2021/08/29 10:20:26;;;;;;;8.95;7.53;;;20.00;99.90;;;;;;5023483;28;20203;-72
2021/08/29 10:22:54;;;;;;;10.60;8.13;;;19.90;99.90;;;;;;5023937;28;20199;-72
2021/08/29 10:25:21;;;;;;;9.23;8.32;;;19.90;99.90;;;;;;5023996;28;20210;-73
2021/08/29 10:27:51;;;;;;;10.77;8.65;;;19.90;99.90;;;;;;5026937;28;20211;-74
2021/08/29 10:30:20;;;;;;;9.55;8.55;;;19.90;99.90;;;;;;5033703;28;20730;-73
2021/08/29 10:32:51;;;;;;;11.23;8.00;;;19.90;99.90;;;;;;5031339;28;20553;-73
2021/08/29 10:35:18;;;;;;;8.88;7.95;;;19.90;99.90;;;;;;5028995;28;20254;-73
2021/08/29 10:37:47;;;;;;;8.80;8.00;;;19.90;99.90;;;;;;5026049;28;20685;-73
2021/08/29 10:40:15;;;;;;;8.65;7.85;;;19.90;99.90;;;;;;5032902;28;20254;-71
2021/08/29 10:42:44;;;;;;;9.55;8.50;;;19.90;99.90;;;;;;5033802;28;20214;-71
2021/08/29 10:45:15;;;;;;;8.27;7.47;;;19.90;99.90;;;;;;5024179;28;20566;-71
2021/08/29 10:47:45;;;;;;;9.65;8.05;;;19.90;99.90;;;;;;5028770;28;20273;-71
2021/08/29 10:50:18;;;;;;;8.85;7.95;;;19.90;99.90;;;;;;5027279;28;20210;-72
2021/08/29 10:52:45;;;;;;;8.80;8.00;;;19.90;99.90;;;;;;5030190;28;20239;-72
2021/08/29 10:55:14;;;;;;;7.80;6.68;;;19.90;99.90;;;;;;5019765;28;20222;-72
2021/08/29 10:57:42;;;;;;;8.52;7.63;;;19.90;99.90;;;;;;5020795;28;20203;-72
2021/08/29 11:00:12;;;;;;;7.95;7.15;;;19.90;99.90;;;;;;5018801;28;20211;-73
2021/08/29 11:02:43;;;;;;;7.32;6.63;;;19.90;99.90;;;;;;5018480;28;20567;-72
2021/08/29 11:05:11;;;;;;;7.75;7.05;;;19.90;99.90;;;;;;5019152;28;20615;-73
2021/08/29 11:07:57;;;;;;;7.90;6.78;;;20.00;99.90;;;;;;5034179;28;20203;-72
2021/08/29 11:10:56;;;;;;;7.53;6.75;;;20.10;99.90;;;;;;5030427;28;20585;-72
2021/08/29 11:13:41;;;;;;;7.80;7.00;;;20.10;99.90;;;;;;5030235;28;20702;-72
2021/08/29 11:16:19;;;;;;;7.32;6.65;;;20.20;99.90;;;;;;5034508;28;20235;-73
2021/08/29 11:19:08;;;;;;;7.65;6.43;;;20.30;99.90;;;;;;5027732;28;20677;-72
2021/08/29 11:22:08;;;;;;;6.60;6.00;;;20.40;99.90;;;;;;5023876;28;20616;-73
2021/08/29 11:25:09;;;;;;;6.35;5.60;;;20.50;99.90;;;;;;5030691;28;20222;-73
2021/08/29 11:27:56;;;;;;;6.07;5.57;;;20.60;99.90;;;;;;5030142;28;20203;-72
2021/08/29 11:30:24;;;;;;;5.47;5.00;;;20.80;99.90;;;;;;5029406;28;20202;-72
2021/08/29 11:33:02;;;;;;;6.10;5.38;;;20.90;99.90;;;;;;5022044;28;20224;-73
2021/08/29 11:35:31;;;;;;;5.38;4.88;;;20.90;99.90;;;;;;5032984;28;20222;-71
2021/08/29 11:38:05;;;;;;;5.55;4.85;;;20.90;99.90;;;;;;5026257;28;20578;-73
2021/08/29 11:41:13;;;;;;;5.50;5.00;;;20.80;99.90;;;;;;5034698;28;20249;-72
2021/08/29 11:43:42;;;;;;;6.20;5.68;;;20.80;99.90;;;;;;5026455;28;20574;-72
2021/08/29 11:46:15;;;;;;;5.30;4.80;;;20.90;99.90;;;;;;5027150;28;20214;-72
2021/08/29 11:48:54;;;;;;;5.30;4.72;;;20.90;99.90;;;;;;5032876;28;20268;-73
2021/08/29 11:51:25;;;;;;;4.70;4.30;;;20.90;99.90;;;;;;5029094;28;20260;-73
2021/08/29 11:53:52;;;;;;;5.15;4.70;;;20.90;99.90;;;;;;5025106;28;20203;-72
2021/08/29 11:56:27;;;;;;;5.18;4.57;;;20.90;99.90;;;;;;5027130;28;20234;-72
2021/08/29 11:58:55;;;;;;;5.07;4.57;;;20.90;99.90;;;;;;5031896;28;20207;-72
2021/08/29 12:01:22;;;;;;;5.82;5.22;;;20.90;99.90;;;;;;5031966;28;20230;-73
2021/08/29 12:03:54;;;;;;;7.65;5.72;;;21.00;99.90;;;;;;5035025;28;20214;-72
2021/08/29 12:06:26;;;;;;;6.00;5.50;;;21.10;99.90;;;;;;5031996;28;20203;-72
2021/08/29 12:09:06;;;;;;;7.75;4.97;;;21.10;99.90;;;;;;5034030;28;20702;-72
2021/08/29 12:11:38;;;;;;;8.30;4.90;;;21.20;99.90;;;;;;5030921;28;20195;-73
2021/08/29 12:14:15;;;;;;;6.78;5.93;;;21.20;99.90;;;;;;5026591;28;20198;-72
2021/08/29 12:16:48;;;;;;;4.90;4.50;;;21.30;99.90;;;;;;5028910;28;20297;-73
2021/08/29 12:19:16;;;;;;;5.45;4.93;;;21.40;99.90;;;;;;5012866;28;20207;-71
2021/08/29 12:21:44;;;;;;;6.03;5.43;;;21.60;99.90;;;;;;5025230;28;20256;-73
2021/08/29 12:24:11;;;;;;;6.00;5.40;;;21.70;99.90;;;;;;5028529;28;20670;-72
2021/08/29 12:26:42;;;;;;;6.50;5.28;;;22.00;99.90;;;;;;5032047;28;20632;-73
2021/08/29 12:29:10;;;;;;;5.60;5.07;;;22.00;99.90;;;;;;5031251;28;20206;-73
2021/08/29 12:31:39;;;;;;;6.88;4.63;;;22.20;99.90;;;;;;5031368;28;20199;-72
2021/08/29 12:34:06;;;;;;;5.28;4.30;;;22.30;99.90;;;;;;5031273;28;20695;-73
2021/08/29 12:36:33;;;;;;;4.60;4.20;;;22.30;99.90;;;;;;5030013;28;20237;-73
2021/08/29 12:39:01;;;;;;;5.93;4.53;;;22.30;99.90;;;;;;5027880;28;20641;-72
2021/08/29 12:41:28;;;;;;;5.10;4.60;;;22.40;99.90;;;;;;5030816;28;20265;-72
2021/08/29 12:44:05;;;;;;;6.30;4.95;;;22.30;99.90;;;;;;5030192;28;20198;-73
2021/08/29 12:46:32;;;;;;;4.75;4.35;;;22.20;99.90;;;;;;5029109;28;20280;-71